• Join FlightAware (Why Join?)
  • Login
  • US Flag 
12:03AM EDT


 

Airport Tracker/Info


-or-


 

Live Flight TrackerFlight Track Log ✈ EJA820 ✈ 09-Jun-2013 ✈ KUGN - KBIV

Flight Track Log - Related Links

Times and Time Zones

All times are in EDT time to prevent confusion due to time zone crossing. See the EJA820 flight status page for this flight to view local times or setup timezone preferences in your user account.

Time Position Orientation Groundspeed Altitude Reporting Facility
EDT Latitude Longitude Course Direction KTS MPH feet Rate Location/Type
12:55PM 42.4333 -87.8000 36° Northeast 187 215 2,900  Level KMKE
12:56PM 42.4833 -87.7500 36° Northeast 237 273 4,700 1,920 Climbing KMKE
12:56PM 42.4922 -87.7525 348° North 235 270 5,300 2,880 Climbing Chicago Center
12:58PM 42.5611 -87.7542 359° North 246 283 8,400 3,060 Climbing Chicago Center
12:59PM 42.6297 -87.7306 14° North 253 291 11,700 2,220 Climbing Chicago Center
01:00PM 42.6992 -87.6958 20° North 265 305 13,100 660 Climbing Chicago Center
01:01PM 42.7783 -87.5958 43° Northeast 351 404 13,100 -60 Level Chicago Center
01:02PM 42.7783 -87.4658 90° East 346 398 13,000 -120 Descending Chicago Center
01:03PM 42.7761 -87.3450 91° East 340 391 12,900 -60 Descending Chicago Center
01:04PM 42.7722 -87.2167 92° East 340 391 12,900  Level Chicago Center
01:05PM 42.7703 -87.0903 91° East 338 389 12,900 -840 Level Chicago Center
01:06PM 42.7669 -86.9400 92° East 333 383 11,200 -1,020 Descending Chicago Center
01:07PM 42.7631 -86.8233 93° East 313 360 10,900 -960 Descending Chicago Center
01:08PM 42.7603 -86.7219 92° East 275 316 9,300 -2,160 Descending Chicago Center
01:09PM 42.7586 -86.6189 91° East 275 316 6,500 -2,760 Descending Chicago Center
01:10PM 42.7572 -86.5189 91° East 268 308 3,600 -1,980 Descending Chicago Center
01:11PM 42.7642 -86.4103 85° East 250 288 2,500 -540 Descending Chicago Center
01:12PM 42.7703 -86.3300 84° East 230 265 2,500  Level Chicago Center
01:13PM 42.7575 -86.2467 102° East 228 262 2,500  Level Chicago Center
01:14PM 42.7350 -86.1578 109° East 230 265 2,500  Level Chicago Center